sensor_id;sensor_type;location;lat;lon;timestamp;P1;durP1;ratioP1;P2;durP2;ratioP2
36725;SDS011;44936;52.086;5.150;2022-08-19T00:01:27;1.70;;;1.23;;
36725;SDS011;44936;52.086;5.150;2022-08-19T00:03:54;2.75;;;1.50;;
36725;SDS011;44936;52.086;5.150;2022-08-19T00:06:21;1.83;;;1.20;;
36725;SDS011;44936;52.086;5.150;2022-08-19T00:08:47;2.75;;;1.20;;
36725;SDS011;44936;52.086;5.150;2022-08-19T00:11:12;2.30;;;1.60;;
36725;SDS011;44936;52.086;5.150;2022-08-19T00:13:37;4.47;;;1.33;;
36725;SDS011;44936;52.086;5.150;2022-08-19T00:16:04;3.30;;;1.50;;
36725;SDS011;44936;52.086;5.150;2022-08-19T00:18:30;2.63;;;1.58;;
36725;SDS011;44936;52.086;5.150;2022-08-19T00:20:56;2.97;;;1.48;;
36725;SDS011;44936;52.086;5.150;2022-08-19T00:23:21;2.07;;;1.30;;
36725;SDS011;44936;52.086;5.150;2022-08-19T00:25:46;2.47;;;1.63;;
36725;SDS011;44936;52.086;5.150;2022-08-19T00:28:11;2.33;;;1.63;;
36725;SDS011;44936;52.086;5.150;2022-08-19T00:30:39;2.70;;;1.27;;
36725;SDS011;44936;52.086;5.150;2022-08-19T00:33:06;2.88;;;1.67;;
36725;SDS011;44936;52.086;5.150;2022-08-19T00:35:33;4.57;;;1.52;;
36725;SDS011;44936;52.086;5.150;2022-08-19T00:37:58;2.03;;;1.30;;
36725;SDS011;44936;52.086;5.150;2022-08-19T00:40:24;3.47;;;1.45;;
36725;SDS011;44936;52.086;5.150;2022-08-19T00:42:50;2.80;;;1.67;;
36725;SDS011;44936;52.086;5.150;2022-08-19T00:45:19;3.90;;;1.67;;
36725;SDS011;44936;52.086;5.150;2022-08-19T00:47:45;2.60;;;1.30;;
36725;SDS011;44936;52.086;5.150;2022-08-19T00:50:14;3.78;;;1.75;;
36725;SDS011;44936;52.086;5.150;2022-08-19T00:52:45;2.25;;;1.60;;
36725;SDS011;44936;52.086;5.150;2022-08-19T00:55:12;10.77;;;1.55;;
36725;SDS011;44936;52.086;5.150;2022-08-19T00:57:40;3.85;;;1.40;;
36725;SDS011;44936;52.086;5.150;2022-08-19T01:00:08;4.18;;;1.30;;
36725;SDS011;44936;52.086;5.150;2022-08-19T01:02:35;2.50;;;1.80;;
36725;SDS011;44936;52.086;5.150;2022-08-19T01:05:01;2.30;;;1.23;;
36725;SDS011;44936;52.086;5.150;2022-08-19T01:07:33;2.60;;;1.50;;
36725;SDS011;44936;52.086;5.150;2022-08-19T01:09:59;3.92;;;1.85;;
36725;SDS011;44936;52.086;5.150;2022-08-19T01:12:24;2.05;;;1.15;;
36725;SDS011;44936;52.086;5.150;2022-08-19T01:14:50;4.13;;;1.85;;
36725;SDS011;44936;52.086;5.150;2022-08-19T01:17:15;4.28;;;1.55;;
36725;SDS011;44936;52.086;5.150;2022-08-19T01:19:41;2.60;;;1.35;;
36725;SDS011;44936;52.086;5.150;2022-08-19T01:22:25;3.83;;;1.50;;
36725;SDS011;44936;52.086;5.150;2022-08-19T01:24:51;1.80;;;1.30;;
36725;SDS011;44936;52.086;5.150;2022-08-19T01:27:16;3.17;;;1.45;;
36725;SDS011;44936;52.086;5.150;2022-08-19T01:29:42;2.35;;;1.58;;
36725;SDS011;44936;52.086;5.150;2022-08-19T01:32:11;2.60;;;1.50;;
36725;SDS011;44936;52.086;5.150;2022-08-19T01:34:36;3.17;;;1.77;;
36725;SDS011;44936;52.086;5.150;2022-08-19T01:37:05;3.08;;;1.45;;
36725;SDS011;44936;52.086;5.150;2022-08-19T01:39:33;3.10;;;1.52;;
36725;SDS011;44936;52.086;5.150;2022-08-19T01:41:58;3.67;;;1.33;;
36725;SDS011;44936;52.086;5.150;2022-08-19T01:44:25;3.40;;;1.30;;
36725;SDS011;44936;52.086;5.150;2022-08-19T01:46:51;2.33;;;1.40;;
36725;SDS011;44936;52.086;5.150;2022-08-19T01:49:18;2.40;;;1.40;;
36725;SDS011;44936;52.086;5.150;2022-08-19T01:51:44;3.92;;;1.63;;
36725;SDS011;44936;52.086;5.150;2022-08-19T01:54:11;2.00;;;1.40;;
36725;SDS011;44936;52.086;5.150;2022-08-19T01:56:40;4.00;;;1.63;;
36725;SDS011;44936;52.086;5.150;2022-08-19T01:59:08;3.00;;;1.35;;
36725;SDS011;44936;52.086;5.150;2022-08-19T02:01:35;2.78;;;1.45;;
36725;SDS011;44936;52.086;5.150;2022-08-19T02:04:00;3.38;;;1.33;;
36725;SDS011;44936;52.086;5.150;2022-08-19T02:06:26;2.50;;;1.45;;
36725;SDS011;44936;52.086;5.150;2022-08-19T02:08:52;3.40;;;1.58;;
36725;SDS011;44936;52.086;5.150;2022-08-19T02:11:21;4.07;;;1.93;;
36725;SDS011;44936;52.086;5.150;2022-08-19T02:13:46;3.03;;;1.65;;
36725;SDS011;44936;52.086;5.150;2022-08-19T02:16:12;2.58;;;1.50;;
36725;SDS011;44936;52.086;5.150;2022-08-19T02:18:37;3.53;;;1.77;;
36725;SDS011;44936;52.086;5.150;2022-08-19T02:21:02;3.03;;;1.47;;
36725;SDS011;44936;52.086;5.150;2022-08-19T02:23:28;3.70;;;1.50;;
36725;SDS011;44936;52.086;5.150;2022-08-19T02:25:54;3.90;;;1.70;;
36725;SDS011;44936;52.086;5.150;2022-08-19T02:28:22;2.28;;;1.45;;
36725;SDS011;44936;52.086;5.150;2022-08-19T02:30:47;5.37;;;1.77;;
36725;SDS011;44936;52.086;5.150;2022-08-19T02:33:13;3.37;;;1.70;;
36725;SDS011;44936;52.086;5.150;2022-08-19T02:35:42;5.53;;;1.73;;
36725;SDS011;44936;52.086;5.150;2022-08-19T02:38:07;2.55;;;1.60;;
36725;SDS011;44936;52.086;5.150;2022-08-19T02:40:52;4.75;;;1.77;;
36725;SDS011;44936;52.086;5.150;2022-08-19T02:43:24;3.72;;;1.85;;
36725;SDS011;44936;52.086;5.150;2022-08-19T02:45:51;4.25;;;1.45;;
36725;SDS011;44936;52.086;5.150;2022-08-19T02:48:20;5.55;;;1.80;;
36725;SDS011;44936;52.086;5.150;2022-08-19T02:50:46;3.50;;;1.70;;
36725;SDS011;44936;52.086;5.150;2022-08-19T02:53:12;3.13;;;1.65;;
36725;SDS011;44936;52.086;5.150;2022-08-19T02:55:44;3.88;;;1.65;;
36725;SDS011;44936;52.086;5.150;2022-08-19T02:58:09;1.95;;;1.40;;
36725;SDS011;44936;52.086;5.150;2022-08-19T03:00:35;4.68;;;1.70;;
36725;SDS011;44936;52.086;5.150;2022-08-19T03:03:00;4.97;;;1.90;;
36725;SDS011;44936;52.086;5.150;2022-08-19T03:05:25;4.60;;;1.53;;
36725;SDS011;44936;52.086;5.150;2022-08-19T03:07:51;3.40;;;1.60;;
36725;SDS011;44936;52.086;5.150;2022-08-19T03:10:17;3.88;;;2.15;;
36725;SDS011;44936;52.086;5.150;2022-08-19T03:12:42;3.67;;;1.90;;
36725;SDS011;44936;52.086;5.150;2022-08-19T03:15:11;4.22;;;1.67;;
36725;SDS011;44936;52.086;5.150;2022-08-19T03:17:36;3.45;;;1.80;;
36725;SDS011;44936;52.086;5.150;2022-08-19T03:20:02;6.55;;;1.63;;
36725;SDS011;44936;52.086;5.150;2022-08-19T03:22:27;3.63;;;1.90;;
36725;SDS011;44936;52.086;5.150;2022-08-19T03:24:55;3.70;;;1.67;;
36725;SDS011;44936;52.086;5.150;2022-08-19T03:27:20;3.78;;;1.80;;
36725;SDS011;44936;52.086;5.150;2022-08-19T03:29:45;5.90;;;2.00;;
36725;SDS011;44936;52.086;5.150;2022-08-19T03:32:11;4.50;;;1.93;;
36725;SDS011;44936;52.086;5.150;2022-08-19T03:34:37;3.13;;;1.48;;
36725;SDS011;44936;52.086;5.150;2022-08-19T03:37:04;4.65;;;2.10;;
36725;SDS011;44936;52.086;5.150;2022-08-19T03:39:30;17.77;;;1.85;;
36725;SDS011;44936;52.086;5.150;2022-08-19T03:41:55;4.93;;;2.20;;
36725;SDS011;44936;52.086;5.150;2022-08-19T03:44:22;6.68;;;2.38;;
36725;SDS011;44936;52.086;5.150;2022-08-19T03:46:52;6.95;;;2.40;;
36725;SDS011;44936;52.086;5.150;2022-08-19T03:49:18;6.55;;;2.28;;
36725;SDS011;44936;52.086;5.150;2022-08-19T03:51:44;5.55;;;2.10;;
36725;SDS011;44936;52.086;5.150;2022-08-19T03:54:13;7.70;;;2.22;;
36725;SDS011;44936;52.086;5.150;2022-08-19T03:56:39;5.00;;;2.15;;
36725;SDS011;44936;52.086;5.150;2022-08-19T03:59:09;4.90;;;2.08;;
36725;SDS011;44936;52.086;5.150;2022-08-19T04:01:35;8.73;;;2.88;;
36725;SDS011;44936;52.086;5.150;2022-08-19T04:04:01;7.13;;;2.65;;
36725;SDS011;44936;52.086;5.150;2022-08-19T04:06:27;7.93;;;2.80;;
36725;SDS011;44936;52.086;5.150;2022-08-19T04:08:53;7.13;;;2.65;;
36725;SDS011;44936;52.086;5.150;2022-08-19T04:11:20;6.78;;;2.75;;
36725;SDS011;44936;52.086;5.150;2022-08-19T04:13:46;5.85;;;2.28;;
36725;SDS011;44936;52.086;5.150;2022-08-19T04:16:12;6.47;;;3.05;;
36725;SDS011;44936;52.086;5.150;2022-08-19T04:18:37;8.00;;;2.90;;
36725;SDS011;44936;52.086;5.150;2022-08-19T04:21:03;8.43;;;3.08;;
36725;SDS011;44936;52.086;5.150;2022-08-19T04:23:29;9.23;;;2.88;;
36725;SDS011;44936;52.086;5.150;2022-08-19T04:25:55;8.48;;;3.13;;
36725;SDS011;44936;52.086;5.150;2022-08-19T04:28:21;7.43;;;2.78;;
36725;SDS011;44936;52.086;5.150;2022-08-19T04:30:47;11.57;;;3.65;;
36725;SDS011;44936;52.086;5.150;2022-08-19T04:33:15;7.57;;;3.08;;
36725;SDS011;44936;52.086;5.150;2022-08-19T04:35:42;7.30;;;2.67;;
36725;SDS011;44936;52.086;5.150;2022-08-19T04:38:08;7.55;;;2.60;;
36725;SDS011;44936;52.086;5.150;2022-08-19T04:40:34;4.65;;;2.33;;
36725;SDS011;44936;52.086;5.150;2022-08-19T04:43:18;6.53;;;2.70;;
36725;SDS011;44936;52.086;5.150;2022-08-19T04:45:44;7.40;;;3.10;;
36725;SDS011;44936;52.086;5.150;2022-08-19T04:48:09;8.73;;;2.60;;
36725;SDS011;44936;52.086;5.150;2022-08-19T04:50:39;10.45;;;3.15;;
36725;SDS011;44936;52.086;5.150;2022-08-19T04:53:05;7.07;;;3.10;;
36725;SDS011;44936;52.086;5.150;2022-08-19T04:55:30;9.83;;;3.23;;
36725;SDS011;44936;52.086;5.150;2022-08-19T04:57:55;7.70;;;2.93;;
36725;SDS011;44936;52.086;5.150;2022-08-19T05:00:21;8.23;;;2.72;;
36725;SDS011;44936;52.086;5.150;2022-08-19T05:02:46;9.30;;;3.17;;
36725;SDS011;44936;52.086;5.150;2022-08-19T05:05:11;8.37;;;3.00;;
36725;SDS011;44936;52.086;5.150;2022-08-19T05:07:37;10.77;;;3.42;;
36725;SDS011;44936;52.086;5.150;2022-08-19T05:10:05;13.40;;;3.65;;
36725;SDS011;44936;52.086;5.150;2022-08-19T05:12:30;10.98;;;3.47;;
36725;SDS011;44936;52.086;5.150;2022-08-19T05:14:57;10.82;;;3.35;;
36725;SDS011;44936;52.086;5.150;2022-08-19T05:17:23;8.70;;;3.40;;
36725;SDS011;44936;52.086;5.150;2022-08-19T05:19:48;8.25;;;3.53;;
36725;SDS011;44936;52.086;5.150;2022-08-19T05:22:32;9.90;;;3.45;;
36725;SDS011;44936;52.086;5.150;2022-08-19T05:24:59;12.02;;;3.88;;
36725;SDS011;44936;52.086;5.150;2022-08-19T05:27:25;16.45;;;4.95;;
36725;SDS011;44936;52.086;5.150;2022-08-19T05:29:51;23.13;;;6.18;;
36725;SDS011;44936;52.086;5.150;2022-08-19T05:32:16;16.80;;;5.23;;
36725;SDS011;44936;52.086;5.150;2022-08-19T05:34:41;15.60;;;5.03;;
36725;SDS011;44936;52.086;5.150;2022-08-19T05:37:07;15.53;;;5.07;;
36725;SDS011;44936;52.086;5.150;2022-08-19T05:39:36;14.27;;;4.47;;
36725;SDS011;44936;52.086;5.150;2022-08-19T05:42:06;16.70;;;5.20;;
36725;SDS011;44936;52.086;5.150;2022-08-19T05:44:33;18.85;;;5.70;;
36725;SDS011;44936;52.086;5.150;2022-08-19T05:47:02;15.65;;;5.70;;
36725;SDS011;44936;52.086;5.150;2022-08-19T05:49:30;21.08;;;6.35;;
36725;SDS011;44936;52.086;5.150;2022-08-19T05:51:55;26.05;;;7.50;;
36725;SDS011;44936;52.086;5.150;2022-08-19T05:54:21;17.88;;;5.57;;
36725;SDS011;44936;52.086;5.150;2022-08-19T05:56:48;20.00;;;6.35;;
36725;SDS011;44936;52.086;5.150;2022-08-19T05:59:14;23.55;;;6.47;;
36725;SDS011;44936;52.086;5.150;2022-08-19T06:01:40;23.35;;;6.60;;
36725;SDS011;44936;52.086;5.150;2022-08-19T06:04:06;20.88;;;5.75;;
36725;SDS011;44936;52.086;5.150;2022-08-19T06:06:31;22.03;;;6.40;;
36725;SDS011;44936;52.086;5.150;2022-08-19T06:08:58;25.05;;;6.32;;
36725;SDS011;44936;52.086;5.150;2022-08-19T06:11:46;25.75;;;6.22;;
36725;SDS011;44936;52.086;5.150;2022-08-19T06:14:11;21.73;;;6.63;;
36725;SDS011;44936;52.086;5.150;2022-08-19T06:16:37;25.98;;;5.32;;
36725;SDS011;44936;52.086;5.150;2022-08-19T06:19:04;25.33;;;6.78;;
36725;SDS011;44936;52.086;5.150;2022-08-19T06:21:31;26.65;;;6.45;;
36725;SDS011;44936;52.086;5.150;2022-08-19T06:23:57;28.25;;;6.22;;
36725;SDS011;44936;52.086;5.150;2022-08-19T06:26:23;27.05;;;6.15;;
36725;SDS011;44936;52.086;5.150;2022-08-19T06:28:49;27.90;;;6.82;;
36725;SDS011;44936;52.086;5.150;2022-08-19T06:31:15;27.17;;;7.38;;
36725;SDS011;44936;52.086;5.150;2022-08-19T06:33:42;26.85;;;6.97;;
36725;SDS011;44936;52.086;5.150;2022-08-19T06:36:07;26.23;;;6.95;;
36725;SDS011;44936;52.086;5.150;2022-08-19T06:38:33;25.45;;;6.70;;
36725;SDS011;44936;52.086;5.150;2022-08-19T06:41:05;26.07;;;7.03;;
36725;SDS011;44936;52.086;5.150;2022-08-19T06:43:30;24.55;;;5.57;;
36725;SDS011;44936;52.086;5.150;2022-08-19T06:45:56;30.43;;;7.53;;
36725;SDS011;44936;52.086;5.150;2022-08-19T06:48:21;22.10;;;5.43;;
36725;SDS011;44936;52.086;5.150;2022-08-19T06:50:46;25.97;;;7.43;;
36725;SDS011;44936;52.086;5.150;2022-08-19T06:53:13;24.05;;;6.80;;
36725;SDS011;44936;52.086;5.150;2022-08-19T06:55:38;24.23;;;6.83;;
36725;SDS011;44936;52.086;5.150;2022-08-19T06:58:04;20.17;;;6.03;;
36725;SDS011;44936;52.086;5.150;2022-08-19T07:00:29;25.45;;;7.05;;
36725;SDS011;44936;52.086;5.150;2022-08-19T07:02:57;26.97;;;7.80;;
36725;SDS011;44936;52.086;5.150;2022-08-19T07:05:23;19.85;;;6.00;;
36725;SDS011;44936;52.086;5.150;2022-08-19T07:07:48;24.63;;;6.93;;
36725;SDS011;44936;52.086;5.150;2022-08-19T07:10:14;19.25;;;6.30;;
36725;SDS011;44936;52.086;5.150;2022-08-19T07:12:40;25.83;;;7.10;;
36725;SDS011;44936;52.086;5.150;2022-08-19T07:15:05;24.20;;;7.00;;
36725;SDS011;44936;52.086;5.150;2022-08-19T07:17:33;27.17;;;7.28;;
36725;SDS011;44936;52.086;5.150;2022-08-19T07:20:00;21.52;;;6.75;;
36725;SDS011;44936;52.086;5.150;2022-08-19T07:22:27;22.27;;;6.30;;
36725;SDS011;44936;52.086;5.150;2022-08-19T07:24:52;17.10;;;6.13;;
36725;SDS011;44936;52.086;5.150;2022-08-19T07:27:18;22.70;;;6.63;;
36725;SDS011;44936;52.086;5.150;2022-08-19T07:29:43;19.02;;;6.22;;
36725;SDS011;44936;52.086;5.150;2022-08-19T07:32:09;22.90;;;6.07;;
36725;SDS011;44936;52.086;5.150;2022-08-19T07:34:36;20.40;;;6.45;;
36725;SDS011;44936;52.086;5.150;2022-08-19T07:37:03;19.02;;;5.90;;
36725;SDS011;44936;52.086;5.150;2022-08-19T07:39:29;18.48;;;5.85;;
36725;SDS011;44936;52.086;5.150;2022-08-19T07:41:55;16.45;;;4.93;;
36725;SDS011;44936;52.086;5.150;2022-08-19T07:44:22;20.52;;;5.93;;
36725;SDS011;44936;52.086;5.150;2022-08-19T07:46:49;25.10;;;6.18;;
36725;SDS011;44936;52.086;5.150;2022-08-19T07:49:16;16.77;;;6.05;;
36725;SDS011;44936;52.086;5.150;2022-08-19T07:52:06;24.23;;;7.00;;
36725;SDS011;44936;52.086;5.150;2022-08-19T07:54:33;21.27;;;5.97;;
36725;SDS011;44936;52.086;5.150;2022-08-19T07:56:59;20.42;;;5.97;;
36725;SDS011;44936;52.086;5.150;2022-08-19T07:59:25;20.88;;;6.00;;
36725;SDS011;44936;52.086;5.150;2022-08-19T08:01:50;22.58;;;6.82;;
36725;SDS011;44936;52.086;5.150;2022-08-19T08:04:16;19.73;;;6.55;;
36725;SDS011;44936;52.086;5.150;2022-08-19T08:07:00;20.95;;;5.82;;
36725;SDS011;44936;52.086;5.150;2022-08-19T08:09:58;22.08;;;6.18;;
36725;SDS011;44936;52.086;5.150;2022-08-19T08:12:26;19.50;;;6.15;;
36725;SDS011;44936;52.086;5.150;2022-08-19T08:14:54;22.70;;;7.20;;
36725;SDS011;44936;52.086;5.150;2022-08-19T08:17:22;16.58;;;5.50;;
36725;SDS011;44936;52.086;5.150;2022-08-19T08:19:48;18.30;;;6.15;;
36725;SDS011;44936;52.086;5.150;2022-08-19T08:22:15;17.95;;;6.63;;
36725;SDS011;44936;52.086;5.150;2022-08-19T08:25:11;22.50;;;6.20;;
36725;SDS011;44936;52.086;5.150;2022-08-19T08:27:41;15.65;;;5.40;;
36725;SDS011;44936;52.086;5.150;2022-08-19T08:30:07;20.50;;;6.85;;
36725;SDS011;44936;52.086;5.150;2022-08-19T08:32:38;25.08;;;6.72;;
36725;SDS011;44936;52.086;5.150;2022-08-19T08:35:04;18.48;;;5.88;;
36725;SDS011;44936;52.086;5.150;2022-08-19T08:37:29;17.50;;;6.20;;
36725;SDS011;44936;52.086;5.150;2022-08-19T08:39:55;15.90;;;6.43;;
36725;SDS011;44936;52.086;5.150;2022-08-19T08:42:22;15.93;;;6.30;;
36725;SDS011;44936;52.086;5.150;2022-08-19T08:45:02;15.70;;;6.03;;
36725;SDS011;44936;52.086;5.150;2022-08-19T08:47:29;15.85;;;5.35;;
36725;SDS011;44936;52.086;5.150;2022-08-19T08:52:30;17.17;;;5.55;;
36725;SDS011;44936;52.086;5.150;2022-08-19T08:55:00;19.70;;;5.50;;
36725;SDS011;44936;52.086;5.150;2022-08-19T08:59:56;14.23;;;5.10;;
36725;SDS011;44936;52.086;5.150;2022-08-19T09:02:22;14.05;;;5.97;;
36725;SDS011;44936;52.086;5.150;2022-08-19T09:04:48;12.23;;;4.80;;
36725;SDS011;44936;52.086;5.150;2022-08-19T09:07:22;12.60;;;5.07;;
36725;SDS011;44936;52.086;5.150;2022-08-19T09:09:50;14.88;;;5.47;;
36725;SDS011;44936;52.086;5.150;2022-08-19T09:12:23;14.63;;;5.35;;
36725;SDS011;44936;52.086;5.150;2022-08-19T09:14:59;13.30;;;5.13;;
36725;SDS011;44936;52.086;5.150;2022-08-19T09:17:28;16.10;;;5.55;;
36725;SDS011;44936;52.086;5.150;2022-08-19T09:19:57;13.25;;;5.10;;
36725;SDS011;44936;52.086;5.150;2022-08-19T09:22:23;13.38;;;5.13;;
36725;SDS011;44936;52.086;5.150;2022-08-19T09:24:53;12.43;;;4.70;;
36725;SDS011;44936;52.086;5.150;2022-08-19T09:27:19;16.05;;;5.88;;
36725;SDS011;44936;52.086;5.150;2022-08-19T09:29:45;25.25;;;6.57;;
36725;SDS011;44936;52.086;5.150;2022-08-19T09:32:14;14.18;;;5.63;;
36725;SDS011;44936;52.086;5.150;2022-08-19T09:34:39;20.05;;;5.97;;
36725;SDS011;44936;52.086;5.150;2022-08-19T09:37:04;14.98;;;5.93;;
36725;SDS011;44936;52.086;5.150;2022-08-19T09:39:30;15.65;;;5.63;;
36725;SDS011;44936;52.086;5.150;2022-08-19T09:41:55;12.40;;;5.50;;
36725;SDS011;44936;52.086;5.150;2022-08-19T09:44:21;17.58;;;6.20;;
36725;SDS011;44936;52.086;5.150;2022-08-19T09:46:46;11.30;;;5.18;;
36725;SDS011;44936;52.086;5.150;2022-08-19T09:49:16;13.82;;;5.25;;
36725;SDS011;44936;52.086;5.150;2022-08-19T09:51:42;15.00;;;6.30;;
36725;SDS011;44936;52.086;5.150;2022-08-19T09:54:09;14.60;;;5.57;;
36725;SDS011;44936;52.086;5.150;2022-08-19T09:56:34;14.88;;;4.70;;
36725;SDS011;44936;52.086;5.150;2022-08-19T09:59:00;11.73;;;5.07;;
36725;SDS011;44936;52.086;5.150;2022-08-19T10:01:28;12.55;;;5.85;;
36725;SDS011;44936;52.086;5.150;2022-08-19T10:03:54;13.40;;;5.82;;
36725;SDS011;44936;52.086;5.150;2022-08-19T10:06:21;12.35;;;5.28;;
36725;SDS011;44936;52.086;5.150;2022-08-19T10:08:47;12.10;;;5.30;;
36725;SDS011;44936;52.086;5.150;2022-08-19T10:11:13;16.40;;;6.32;;
36725;SDS011;44936;52.086;5.150;2022-08-19T10:13:41;17.67;;;6.10;;
36725;SDS011;44936;52.086;5.150;2022-08-19T10:16:07;17.55;;;6.15;;
36725;SDS011;44936;52.086;5.150;2022-08-19T10:18:33;18.05;;;6.30;;
36725;SDS011;44936;52.086;5.150;2022-08-19T10:21:03;10.80;;;4.68;;
36725;SDS011;44936;52.086;5.150;2022-08-19T10:23:32;17.65;;;6.55;;
36725;SDS011;44936;52.086;5.150;2022-08-19T10:25:59;14.37;;;5.63;;
36725;SDS011;44936;52.086;5.150;2022-08-19T10:28:24;12.55;;;5.32;;
36725;SDS011;44936;52.086;5.150;2022-08-19T10:30:50;19.30;;;6.77;;
36725;SDS011;44936;52.086;5.150;2022-08-19T10:33:15;15.40;;;5.53;;
36725;SDS011;44936;52.086;5.150;2022-08-19T10:35:40;14.65;;;5.63;;
36725;SDS011;44936;52.086;5.150;2022-08-19T10:38:05;22.67;;;5.60;;
36725;SDS011;44936;52.086;5.150;2022-08-19T10:40:31;19.60;;;5.97;;
36725;SDS011;44936;52.086;5.150;2022-08-19T10:42:57;15.57;;;5.55;;
36725;SDS011;44936;52.086;5.150;2022-08-19T10:45:22;16.67;;;5.80;;
36725;SDS011;44936;52.086;5.150;2022-08-19T10:47:49;15.63;;;5.45;;
36725;SDS011;44936;52.086;5.150;2022-08-19T10:50:15;15.93;;;5.55;;
36725;SDS011;44936;52.086;5.150;2022-08-19T10:53:02;15.65;;;5.28;;
36725;SDS011;44936;52.086;5.150;2022-08-19T10:55:28;17.48;;;5.55;;
36725;SDS011;44936;52.086;5.150;2022-08-19T10:58:12;16.42;;;5.75;;
36725;SDS011;44936;52.086;5.150;2022-08-19T11:00:38;14.77;;;4.85;;
36725;SDS011;44936;52.086;5.150;2022-08-19T11:03:03;12.90;;;5.60;;
36725;SDS011;44936;52.086;5.150;2022-08-19T11:05:28;13.45;;;5.00;;
36725;SDS011;44936;52.086;5.150;2022-08-19T11:07:55;15.77;;;5.07;;
36725;SDS011;44936;52.086;5.150;2022-08-19T11:10:20;11.00;;;4.82;;
36725;SDS011;44936;52.086;5.150;2022-08-19T11:12:45;14.27;;;5.47;;
36725;SDS011;44936;52.086;5.150;2022-08-19T11:15:12;13.00;;;5.43;;
36725;SDS011;44936;52.086;5.150;2022-08-19T11:17:40;16.10;;;5.43;;
36725;SDS011;44936;52.086;5.150;2022-08-19T11:20:06;10.05;;;4.70;;
36725;SDS011;44936;52.086;5.150;2022-08-19T11:22:32;19.02;;;5.90;;
36725;SDS011;44936;52.086;5.150;2022-08-19T11:24:57;16.23;;;5.72;;
36725;SDS011;44936;52.086;5.150;2022-08-19T11:27:23;13.77;;;5.27;;
36725;SDS011;44936;52.086;5.150;2022-08-19T11:29:48;14.53;;;5.73;;
36725;SDS011;44936;52.086;5.150;2022-08-19T11:32:13;13.67;;;5.10;;
36725;SDS011;44936;52.086;5.150;2022-08-19T11:34:39;17.40;;;6.00;;
36725;SDS011;44936;52.086;5.150;2022-08-19T11:37:05;15.73;;;5.33;;
36725;SDS011;44936;52.086;5.150;2022-08-19T11:39:31;13.50;;;5.80;;
36725;SDS011;44936;52.086;5.150;2022-08-19T11:42:00;12.73;;;5.72;;
36725;SDS011;44936;52.086;5.150;2022-08-19T11:44:26;17.10;;;5.95;;
36725;SDS011;44936;52.086;5.150;2022-08-19T11:46:52;14.55;;;5.78;;
36725;SDS011;44936;52.086;5.150;2022-08-19T11:49:18;18.95;;;6.25;;
36725;SDS011;44936;52.086;5.150;2022-08-19T11:51:44;13.10;;;6.00;;
36725;SDS011;44936;52.086;5.150;2022-08-19T11:54:10;15.95;;;5.45;;
36725;SDS011;44936;52.086;5.150;2022-08-19T11:56:36;17.10;;;4.93;;
36725;SDS011;44936;52.086;5.150;2022-08-19T11:59:01;14.93;;;5.38;;
36725;SDS011;44936;52.086;5.150;2022-08-19T12:01:27;11.93;;;4.30;;
36725;SDS011;44936;52.086;5.150;2022-08-19T12:03:53;10.57;;;4.27;;
36725;SDS011;44936;52.086;5.150;2022-08-19T12:06:20;14.25;;;5.45;;
36725;SDS011;44936;52.086;5.150;2022-08-19T12:08:48;10.82;;;4.07;;
36725;SDS011;44936;52.086;5.150;2022-08-19T12:11:14;9.32;;;4.13;;
36725;SDS011;44936;52.086;5.150;2022-08-19T12:13:39;7.47;;;3.20;;
36725;SDS011;44936;52.086;5.150;2022-08-19T12:16:09;4.95;;;2.97;;
36725;SDS011;44936;52.086;5.150;2022-08-19T12:18:37;6.25;;;3.17;;
36725;SDS011;44936;52.086;5.150;2022-08-19T12:21:02;5.60;;;3.10;;
36725;SDS011;44936;52.086;5.150;2022-08-19T12:23:28;8.18;;;3.03;;
36725;SDS011;44936;52.086;5.150;2022-08-19T12:25:54;7.70;;;3.10;;
36725;SDS011;44936;52.086;5.150;2022-08-19T12:28:20;5.72;;;3.15;;
36725;SDS011;44936;52.086;5.150;2022-08-19T12:30:49;4.45;;;2.63;;
36725;SDS011;44936;52.086;5.150;2022-08-19T12:33:18;8.20;;;2.58;;
36725;SDS011;44936;52.086;5.150;2022-08-19T12:35:44;7.75;;;3.20;;
36725;SDS011;44936;52.086;5.150;2022-08-19T12:38:11;5.45;;;2.25;;
36725;SDS011;44936;52.086;5.150;2022-08-19T12:40:37;8.52;;;2.40;;
36725;SDS011;44936;52.086;5.150;2022-08-19T12:43:04;3.95;;;2.05;;
36725;SDS011;44936;52.086;5.150;2022-08-19T12:45:30;4.87;;;2.37;;
36725;SDS011;44936;52.086;5.150;2022-08-19T12:47:55;5.63;;;2.10;;
36725;SDS011;44936;52.086;5.150;2022-08-19T12:50:20;3.88;;;2.08;;
36725;SDS011;44936;52.086;5.150;2022-08-19T12:52:46;2.72;;;1.85;;
36725;SDS011;44936;52.086;5.150;2022-08-19T12:55:11;3.83;;;2.07;;
36725;SDS011;44936;52.086;5.150;2022-08-19T12:57:37;5.15;;;1.77;;
36725;SDS011;44936;52.086;5.150;2022-08-19T13:00:04;3.33;;;1.77;;
36725;SDS011;44936;52.086;5.150;2022-08-19T13:02:35;3.53;;;1.73;;
36725;SDS011;44936;52.086;5.150;2022-08-19T13:05:19;5.95;;;2.03;;
36725;SDS011;44936;52.086;5.150;2022-08-19T13:07:45;3.47;;;1.60;;
36725;SDS011;44936;52.086;5.150;2022-08-19T13:10:11;4.22;;;2.05;;
36725;SDS011;44936;52.086;5.150;2022-08-19T13:12:38;3.55;;;1.77;;
36725;SDS011;44936;52.086;5.150;2022-08-19T13:15:03;4.93;;;1.77;;
36725;SDS011;44936;52.086;5.150;2022-08-19T13:17:29;2.33;;;1.60;;
36725;SDS011;44936;52.086;5.150;2022-08-19T13:19:55;3.50;;;1.80;;
36725;SDS011;44936;52.086;5.150;2022-08-19T13:22:21;4.10;;;1.80;;
36725;SDS011;44936;52.086;5.150;2022-08-19T13:24:46;6.30;;;1.93;;
36725;SDS011;44936;52.086;5.150;2022-08-19T13:27:13;5.72;;;1.60;;
36725;SDS011;44936;52.086;5.150;2022-08-19T13:29:39;8.07;;;2.07;;
36725;SDS011;44936;52.086;5.150;2022-08-19T13:32:23;3.90;;;1.77;;
36725;SDS011;44936;52.086;5.150;2022-08-19T13:35:07;3.17;;;1.65;;
36725;SDS011;44936;52.086;5.150;2022-08-19T13:37:32;4.05;;;1.80;;
36725;SDS011;44936;52.086;5.150;2022-08-19T13:40:07;4.32;;;1.83;;
36725;SDS011;44936;52.086;5.150;2022-08-19T13:42:36;4.25;;;1.70;;
36725;SDS011;44936;52.086;5.150;2022-08-19T13:45:01;3.20;;;1.97;;
36725;SDS011;44936;52.086;5.150;2022-08-19T13:47:26;5.72;;;2.25;;
36725;SDS011;44936;52.086;5.150;2022-08-19T13:49:52;3.10;;;1.90;;
36725;SDS011;44936;52.086;5.150;2022-08-19T13:52:17;3.75;;;1.83;;
36725;SDS011;44936;52.086;5.150;2022-08-19T13:54:43;7.70;;;2.42;;
36725;SDS011;44936;52.086;5.150;2022-08-19T13:57:08;5.05;;;2.10;;
36725;SDS011;44936;52.086;5.150;2022-08-19T13:59:34;8.07;;;2.07;;
36725;SDS011;44936;52.086;5.150;2022-08-19T14:02:00;3.57;;;1.73;;
36725;SDS011;44936;52.086;5.150;2022-08-19T14:04:25;4.68;;;2.05;;
36725;SDS011;44936;52.086;5.150;2022-08-19T14:06:50;3.53;;;1.63;;
36725;SDS011;44936;52.086;5.150;2022-08-19T14:09:16;2.53;;;1.60;;
36725;SDS011;44936;52.086;5.150;2022-08-19T14:11:41;3.87;;;1.50;;
36725;SDS011;44936;52.086;5.150;2022-08-19T14:14:06;3.70;;;1.90;;
36725;SDS011;44936;52.086;5.150;2022-08-19T14:16:31;2.90;;;1.80;;
36725;SDS011;44936;52.086;5.150;2022-08-19T14:18:57;5.47;;;2.00;;
36725;SDS011;44936;52.086;5.150;2022-08-19T14:21:23;2.78;;;1.67;;
36725;SDS011;44936;52.086;5.150;2022-08-19T14:23:49;3.42;;;1.83;;
36725;SDS011;44936;52.086;5.150;2022-08-19T14:26:15;2.92;;;1.70;;
36725;SDS011;44936;52.086;5.150;2022-08-19T14:28:41;2.92;;;1.80;;
36725;SDS011;44936;52.086;5.150;2022-08-19T14:31:08;3.70;;;1.60;;
36725;SDS011;44936;52.086;5.150;2022-08-19T14:33:33;2.08;;;1.40;;
36725;SDS011;44936;52.086;5.150;2022-08-19T14:35:58;2.00;;;1.30;;
36725;SDS011;44936;52.086;5.150;2022-08-19T14:38:25;1.83;;;1.20;;
36725;SDS011;44936;52.086;5.150;2022-08-19T14:40:51;1.50;;;1.08;;
36725;SDS011;44936;52.086;5.150;2022-08-19T14:43:17;2.05;;;1.40;;
36725;SDS011;44936;52.086;5.150;2022-08-19T14:45:42;3.35;;;1.30;;